createdAt,value
2019-04-06T00:05:03.558Z,82.90
2019-04-06T00:11:48.549Z,83.10
2019-04-06T00:18:33.410Z,83.60
2019-04-06T00:25:18.419Z,83.10
2019-04-06T00:32:16.851Z,83.20
2019-04-06T00:39:01.772Z,82.90
2019-04-06T00:45:48.208Z,82.70
2019-04-06T00:52:33.143Z,82.90
2019-04-06T00:59:18.038Z,82.90
2019-04-06T01:06:04.235Z,83.30
2019-04-06T01:12:49.243Z,83.20
2019-04-06T01:19:34.274Z,83.10
2019-04-06T01:26:19.289Z,82.90
2019-04-06T01:33:04.224Z,83.30
2019-04-06T01:39:49.149Z,85.80
2019-04-06T01:46:34.019Z,86.20
2019-04-06T01:53:18.973Z,86.60
2019-04-06T02:00:06.507Z,86.70
2019-04-06T02:06:51.450Z,86.60
2019-04-06T02:13:36.372Z,86.90
2019-04-06T02:20:21.242Z,90.00
2019-04-06T02:27:06.135Z,90.00
2019-04-06T02:34:01.768Z,90.20
2019-04-06T02:40:48.312Z,90.10
2019-04-06T02:47:33.166Z,89.70
2019-04-06T02:54:18.028Z,89.50
2019-04-06T03:01:03.037Z,89.70
2019-04-06T03:07:48.230Z,89.10
2019-04-06T03:14:36.723Z,89.30
2019-04-06T03:21:21.655Z,89.60
2019-04-06T03:28:07.602Z,90.00
2019-04-06T03:34:52.658Z,90.00
2019-04-06T03:41:37.558Z,90.00
2019-04-06T03:48:22.418Z,89.80
2019-04-06T03:55:08.215Z,89.70
2019-04-06T04:01:53.211Z,89.90
2019-04-06T04:08:38.080Z,89.40
2019-04-06T04:15:23.019Z,89.20
2019-04-06T04:22:08.057Z,89.20
2019-04-06T04:28:53.076Z,89.70
2019-04-06T04:35:38.223Z,90.10
2019-04-06T04:42:23.220Z,91.20
2019-04-06T04:49:08.342Z,91.30
2019-04-06T04:55:53.362Z,91.30
2019-04-06T05:02:38.346Z,91.50
2019-04-06T05:09:23.212Z,91.40
2019-04-06T05:16:12.853Z,91.60
2019-04-06T05:22:57.862Z,91.60
2019-04-06T05:29:42.866Z,88.10
2019-04-06T05:36:27.904Z,84.00
2019-04-06T05:43:13.110Z,82.90
2019-04-06T05:49:57.966Z,75.90
2019-04-06T05:56:43.564Z,74.10
2019-04-06T06:03:28.484Z,70.40
2019-04-06T06:10:13.436Z,68.80
2019-04-06T06:16:58.416Z,55.20
2019-04-06T06:23:43.503Z,39.40
2019-04-06T06:30:28.742Z,33.50
2019-04-06T06:37:13.606Z,30.60
2019-04-06T06:43:58.478Z,29.30
2019-04-06T06:50:43.769Z,29.60
2019-04-06T06:57:28.727Z,28.60
2019-04-06T07:04:13.657Z,34.80
2019-04-06T07:10:58.702Z,41.80
2019-04-06T07:17:43.571Z,48.30
2019-04-06T07:24:28.498Z,48.90
2019-04-06T07:31:13.433Z,48.70
2019-04-06T07:37:58.362Z,49.60
2019-04-06T07:44:43.538Z,50.30
2019-04-06T07:51:30.061Z,50.00
2019-04-06T07:58:15.616Z,48.50
2019-04-06T08:05:00.710Z,48.10
2019-04-06T08:11:45.987Z,46.20
2019-04-06T08:18:30.942Z,45.30
2019-04-06T08:25:16.102Z,42.70
2019-04-06T08:32:01.061Z,40.80
2019-04-06T08:38:46.154Z,39.20
2019-04-06T08:45:31.454Z,39.20
2019-04-06T08:52:16.742Z,38.20
2019-04-06T08:59:10.761Z,36.60
2019-04-06T09:05:48.434Z,38.10
2019-04-06T09:12:33.421Z,41.00
2019-04-06T09:19:18.439Z,40.00
2019-04-06T09:26:03.303Z,38.60
2019-04-06T09:32:48.174Z,38.10
2019-04-06T09:39:33.056Z,36.80
2019-04-06T09:46:22.687Z,35.80
2019-04-06T09:53:09.254Z,33.50
2019-04-06T09:59:58.730Z,30.50
2019-04-06T10:07:02.241Z,31.40
2019-04-06T10:13:48.826Z,30.20
2019-04-06T10:20:50.589Z,28.30
2019-04-06T10:27:40.194Z,29.40
2019-04-06T10:34:27.001Z,28.10
2019-04-06T10:41:22.668Z,29.20
2019-04-06T10:48:09.334Z,28.80
2019-04-06T10:55:04.926Z,30.00
2019-04-06T11:02:00.527Z,33.70
2019-04-06T11:08:47.043Z,36.80
2019-04-06T11:15:39.062Z,36.30
2019-04-06T11:22:28.482Z,36.10
2019-04-06T11:29:27.673Z,35.00
2019-04-06T11:36:20.239Z,34.50
2019-04-06T11:43:09.823Z,34.20
2019-04-06T11:50:05.413Z,35.80
2019-04-06T11:57:07.094Z,38.30
2019-04-06T12:03:53.631Z,37.20
2019-04-06T12:10:40.997Z,36.40
2019-04-06T12:17:39.725Z,35.40
2019-04-06T12:24:44.457Z,34.90
2019-04-06T12:31:34.727Z,34.50
2019-04-06T12:38:37.399Z,34.60
2019-04-06T12:45:23.949Z,35.00
2019-04-06T12:52:11.539Z,35.10
2019-04-06T12:59:04.185Z,35.20
2019-04-06T13:06:02.576Z,35.50
2019-04-06T13:13:05.618Z,34.00
2019-04-06T13:20:03.987Z,34.50
2019-04-06T13:26:50.712Z,33.20
2019-04-06T13:33:53.798Z,33.80
2019-04-06T13:40:52.995Z,34.00
2019-04-06T13:47:46.473Z,33.30
2019-04-06T13:54:42.395Z,33.40
2019-04-06T14:01:46.928Z,33.70
2019-04-06T14:08:49.122Z,33.80
2019-04-06T14:15:36.108Z,34.20
2019-04-06T14:22:41.091Z,34.50
2019-04-06T14:29:44.669Z,35.10
2019-04-06T14:36:37.363Z,35.60
2019-04-06T14:43:28.521Z,35.40
2019-04-06T14:50:15.227Z,35.30
2019-04-06T14:57:02.461Z,35.30
2019-04-06T15:03:54.732Z,34.90
2019-04-06T15:10:41.482Z,34.60
2019-04-06T15:17:28.928Z,34.30
2019-04-06T15:24:34.156Z,34.30
2019-04-06T15:31:23.890Z,34.00
2019-04-06T15:38:16.765Z,33.90
2019-04-06T15:45:22.337Z,34.70
2019-04-06T15:52:27.595Z,35.60
2019-04-06T15:59:14.408Z,36.30
2019-04-06T16:06:01.057Z,37.10
2019-04-06T16:12:58.227Z,37.50
2019-04-06T16:19:54.168Z,37.80
2019-04-06T16:26:44.136Z,38.40
2019-04-06T16:33:30.817Z,38.90
2019-04-06T16:40:21.369Z,38.80
2019-04-06T16:47:23.339Z,38.70
2019-04-06T16:54:10.484Z,38.80
2019-04-06T17:00:57.159Z,38.80
2019-04-06T17:07:49.929Z,38.40
2019-04-06T17:14:49.241Z,39.50
2019-04-06T17:21:36.100Z,39.80
2019-04-06T17:28:39.301Z,41.60
2019-04-06T17:35:44.129Z,44.00
2019-04-06T17:42:36.251Z,45.90
2019-04-06T17:49:25.703Z,49.00
2019-04-06T17:56:31.155Z,51.00
2019-04-06T18:03:33.430Z,52.90
2019-04-06T18:10:35.597Z,53.20
2019-04-06T18:17:21.837Z,55.10
2019-04-06T18:24:07.015Z,56.00
2019-04-06T18:30:59.299Z,56.90
2019-04-06T18:37:48.788Z,57.90
2019-04-06T18:44:33.655Z,59.00
2019-04-06T18:51:19.169Z,59.60
2019-04-06T18:58:12.229Z,60.30
2019-04-06T19:04:51.103Z,60.90
2019-04-06T19:11:35.967Z,61.50
2019-04-06T19:18:21.586Z,61.90
2019-04-06T19:25:07.915Z,63.00
2019-04-06T19:31:52.936Z,63.40
2019-04-06T19:38:38.283Z,64.10
2019-04-06T19:45:23.457Z,64.90
2019-04-06T19:52:08.761Z,67.00
2019-04-06T19:58:53.993Z,67.20
2019-04-06T20:05:39.261Z,67.20
2019-04-06T20:12:24.866Z,68.80
2019-04-06T20:19:10.390Z,70.10
2019-04-06T20:25:55.844Z,71.50
2019-04-06T20:32:41.714Z,73.60
2019-04-06T20:39:27.192Z,73.60
2019-04-06T20:46:12.226Z,73.30
2019-04-06T20:52:57.086Z,73.50
2019-04-06T20:59:41.946Z,75.00
2019-04-06T21:06:27.068Z,75.60
2019-04-06T21:13:12.175Z,76.20
2019-04-06T21:19:57.632Z,76.60
2019-04-06T21:26:43.264Z,76.70
2019-04-06T21:33:28.625Z,76.70
2019-04-06T21:40:14.767Z,76.70
2019-04-06T21:47:00.017Z,77.20
2019-04-06T21:53:45.129Z,80.10
2019-04-06T22:00:38.580Z,79.50
2019-04-06T22:07:27.009Z,80.50
2019-04-06T22:14:12.808Z,80.70
2019-04-06T22:21:02.330Z,81.10
2019-04-06T22:27:49.292Z,81.30
2019-04-06T22:34:39.746Z,81.60
2019-04-06T22:41:20.786Z,82.80
2019-04-06T22:48:07.175Z,82.30
2019-04-06T22:54:52.464Z,83.10
2019-04-06T23:01:39.006Z,82.70
2019-04-06T23:08:24.624Z,82.90
2019-04-06T23:15:09.877Z,85.50
2019-04-06T23:21:56.613Z,85.30
2019-04-06T23:28:41.588Z,84.70
2019-04-06T23:35:26.495Z,86.10
2019-04-06T23:42:11.472Z,87.40
2019-04-06T23:48:56.331Z,87.10
2019-04-06T23:55:42.179Z,86.80
